Griffiths, Vicki
United StatesWomanBorn 19432001 – 2025Runner id 59449
Events
45
2001 – 2025
Best pace
7.541
km/h · 2013
Best finish
5th
of 16 · 2016
Distance raced
3,494
km · splits not double-counted
Pace over time
km/h · higher is faster
Pace over time: 45 races from 2001 to 2025, ranging from 2.01 to 11.19 kilometres per hour, where higher is faster. A second, age-graded series is drawn above it; the gap between the two is the age credit.
- Actual pace
- Age-graded pace
Results
| Date | Event | Distance | Result | Pace km/h | Placing |
|---|---|---|---|---|---|
| 2001-03-17 | Chuckanut 50KUnited States | 50km | 8:18:39 h | 6.016 | 136/140 |
| 2002-10-26 | Baker Lake 50K Ultra Trail RunUnited States | 50km | 7:38:31 h | 6.543 | 50/55 |
| 2003-03-15 | Chuckanut 50KUnited States | 50km | 7:58:25 h | 6.271 | 154/165 |
| 2003-11-08 | Tanks Alot 50KUnited States | 50km | 7:17:08 h | 6.863 | 21/23 |
| 2004-03-13 | Chuckanut 50KUnited States | 50km | 8:17:25 h | 6.031 | 192/197 |
| 2004-11-13 | 50km | 7:06:54 h | 7.027 | 27/34 | |
| 2005-10-01 | Baker Lake 50K Ultra Trail RunUnited States | 50km | 8:45:36 h | 5.708 | 95/101 |
| 2006-05-20 | Watershed Preserve 12 Hr Trail RaceUnited States | 12h | 51.901 km | 4.325 | 28/30 |
| 2006-07-29 | 50mi | 13:56:23 h | 5.773 | 103/104 | |
| 2009-04-04 | 50mi | 13:16:46 h | 6.060 | 81/109 | |
| 2010-02-06 | 100mi | 29:50:10 h | 5.394 | 216/216 | |
| 2010-10-02 | Baker Lake 50K Ultra Trail RunUnited States | 50km | 9:18:00 h | 5.376 | 112/115 |
| 2011-01-08 | Bridle Trails Winter Running FestivalUnited States | 50km | 8:18:49 h | 6.014 | 45/46 |
| 2011-02-19 | 50km | 6:56:00 h | 7.212 | 25/25 | |
| 2011-03-26 | 24h | 69.137 km | 2.881 | 9/9 | |
| 2011-05-14 | 12h | 60.551 km | 5.046 | 49/68 | |
| 2012-01-28 | Bridle Trails Winter Running FestivalUnited States | 50km | 7:53:53 h | 6.331 | 46/46 |
| 2012-02-18 | 50km | 6:49:49 h | 7.320 | 22/24 | |
| 2012-05-19 | 12h | 71.519 km | 5.960 | 33/60 | |
| 2013-02-16 | Woolley Trail Runs 50kUnited States | 50km | 6:37:50 h | 7.541 | 12/17 |
| 2013-03-16 | 50km | 8:11:40 h | 6.102 | 337/346 | |
| 2013-04-13 | Lumberjack Endurance 100 km RunUnited States | 100km | 21:42:00 h | 4.608 | 3/3 |
| 2014-02-15 | Woolley Trail Runs 50kUnited States | 50km | 6:42:24 h | 7.455 | 20/26 |
| 2014-03-28 | 24h | 116.323 km | 4.847 | 9/23 | |
| 2014-10-19 | 50km | 7:08:59 h | 6.993 | 18/21 | |
| 2015-02-14 | Woolley Trail Runs 50kUnited States | 50km | 6:50:39 h | 7.305 | 22/27 |
| 2015-10-18 | 50km | 7:09:44 h | 6.981 | 18/18 | |
| 2016-02-13 | Woolley Trail Runs 50kUnited States | 50km | 7:14:55 h | 6.898 | 18/20 |
| 2016-03-25 | 24h | 115.868 km | 4.828 | 5/16 | |
| 2018-12-30 | 48h | 162.191 km | 3.379 | 55/98 | |
| 2019-09-26 | 24h | 108.630 km | 4.526 | 10/16 | |
| 2019-12-28 | 48h | 121.407 km | 2.529 | 76/104 | |
| 2021-06-05 | 12h | 46.252 km | 3.854 | 6/6 | |
| 2021-12-28 | 48h | 133.208 km | 2.775 | 41/68 | |
| 2022-06-18 | 24h | 82.800 km | 3.450 | 27/40 | |
| 2022-08-13 | 24h | 108.791 km | 4.533 | 9/15 | |
| 2022-12-28 | 48h | 136.581 km | 2.845 | 40/76 | |
| 2023-03-16 | 48h | 130.195 km | 2.712 | 11/13 | |
| 2023-08-12 | 24h | 92.054 km | 3.836 | 13/26 | |
| 2023-12-28 | 48h | 133.752 km | 2.787 | 42/79 | |
| 2024-03-30 | 12h | 56.648 km | 4.721 | 32/52 | |
| 2024-08-03 | 12h | 50.211 km | 4.184 | 20/26 | |
| 2024-12-28 | 48h | 102.014 km | 2.125 | 48/64 | |
| 2025-03-13 | 48h | 96.560 km | 2.012 | 11/15 | |
| 2025-08-02 | Hamster Endurance Runs 24 Hour RunUnited States | 24h | 75.317 km | 3.138 | 19/25 |